Conger, Iowa
Current Conditions -  °F | °C
As of 10:55 AM on Saturday 25 Oct 2014 (Local Time) from KI75 Reporting Station
Clear Clear  
Wind Chill: 65°   Ceiling: Unl
Heat Index: 65°   Visibility: 10mi
Dew Point: 43°   Wind: 0mph
Humidity: 45%   Direction: NA
Pressure: 30.11"   Gusts: NA
Location:  41.2933°N, 93.7977°W
Report Text: KI75 251555Z AUTO 00000KT 10SM CLR 18/06 A3011 RMK AO2 T01840062
Loading
Personal Weather Stations






























Interactive Weather Map
Tropical Storm Tracking
New forecast layout! Learn more

10-Day Weather Forecast

Advertisements
Track Severe Weather on mobile